createdAt,value
2019-05-12T00:00:02.907Z,9
2019-05-12T00:01:03.585Z,9
2019-05-12T00:05:03.141Z,9
2019-05-12T00:06:03.743Z,9.1
2019-05-12T00:07:03.654Z,9
2019-05-12T00:08:03.384Z,9.1
2019-05-12T00:09:03.414Z,9
2019-05-12T00:10:03.486Z,9.1
2019-05-12T00:11:03.223Z,9.1
2019-05-12T00:12:03.648Z,9.1
2019-05-12T00:13:03.653Z,9.1
2019-05-12T00:14:03.679Z,9
2019-05-12T00:15:03.721Z,9.1
2019-05-12T00:16:03.432Z,9.1
2019-05-12T00:17:03.260Z,9.1
2019-05-12T00:18:03.476Z,9
2019-05-12T00:19:03.199Z,9
2019-05-12T00:20:03.554Z,9
2019-05-12T00:21:03.401Z,9.1
2019-05-12T00:22:03.532Z,9.1
2019-05-12T00:23:03.280Z,9
2019-05-12T00:24:03.134Z,9
2019-05-12T00:25:03.158Z,9.1
2019-05-12T00:26:02.996Z,9.1
2019-05-12T00:27:03.258Z,9.1
2019-05-12T00:28:03.253Z,9
2019-05-12T00:29:03.166Z,9
2019-05-12T00:30:03.191Z,9.1
2019-05-12T00:31:03.009Z,9.1
2019-05-12T00:32:03.070Z,9
2019-05-12T00:33:03.015Z,9.1
2019-05-12T00:34:02.841Z,9.1
2019-05-12T00:35:02.937Z,9.1
2019-05-12T00:36:02.832Z,9.1
2019-05-12T00:37:02.868Z,9.1
2019-05-12T00:38:02.835Z,9.1
2019-05-12T00:39:03.554Z,9.1
2019-05-12T00:40:03.573Z,9.1
2019-05-12T00:41:03.876Z,9.1
2019-05-12T00:42:03.799Z,9.1
2019-05-12T00:43:03.603Z,9.1
2019-05-12T00:44:03.704Z,9.1
2019-05-12T00:45:03.734Z,9.1
2019-05-12T00:46:03.405Z,9.1
2019-05-12T00:47:03.707Z,9.1
2019-05-12T00:48:03.299Z,9.1
2019-05-12T00:49:03.406Z,9.1
2019-05-12T00:50:03.568Z,9.1
2019-05-12T00:51:03.463Z,9.1
2019-05-12T00:52:03.181Z,9.1
2019-05-12T00:53:03.415Z,9.1
2019-05-12T00:54:03.261Z,9.1
2019-05-12T00:55:03.516Z,9.1
2019-05-12T00:56:03.157Z,9.1
2019-05-12T00:57:02.872Z,9.1
2019-05-12T00:58:03.163Z,9.1
2019-05-12T00:59:03.086Z,9.1
2019-05-12T01:00:03.163Z,9.1
2019-05-12T01:01:03.294Z,9.1
2019-05-12T01:02:03.249Z,9.1
2019-05-12T01:03:02.934Z,9.1
2019-05-12T01:04:03.019Z,9.1
2019-05-12T01:05:03.033Z,9.1
2019-05-12T01:06:02.931Z,9.2
2019-05-12T01:07:02.889Z,9.2
2019-05-12T01:08:03.589Z,9.2
2019-05-12T01:09:02.973Z,9.2
2019-05-12T01:10:05.224Z,9.2
2019-05-12T01:11:02.907Z,9.1
2019-05-12T01:12:03.602Z,9.1
2019-05-12T01:13:03.506Z,9.1
2019-05-12T01:14:03.567Z,9.1
2019-05-12T01:15:03.708Z,9.1
2019-05-12T01:16:03.420Z,9.1
2019-05-12T01:17:03.782Z,9.1
2019-05-12T01:18:03.533Z,9.1
2019-05-12T01:19:03.328Z,9.1
2019-05-12T01:20:03.363Z,9.1
2019-05-12T01:21:03.364Z,9.1
2019-05-12T01:22:03.618Z,9.1
2019-05-12T01:23:03.152Z,9.1
2019-05-12T01:24:03.772Z,9.1
2019-05-12T01:25:03.329Z,9.1
2019-05-12T01:26:03.523Z,9.1
2019-05-12T01:27:02.934Z,9.1
2019-05-12T01:28:03.131Z,9.1
2019-05-12T01:29:03.302Z,9.1
2019-05-12T01:30:03.147Z,9.2
2019-05-12T01:31:03.296Z,9.2
2019-05-12T01:32:03.019Z,9.2
2019-05-12T01:33:02.971Z,9.2
2019-05-12T01:34:02.800Z,9.3
2019-05-12T01:35:03.520Z,9.3
2019-05-12T01:36:03.182Z,9.2
2019-05-12T01:37:03.160Z,9.2
2019-05-12T01:38:03.232Z,9.2
2019-05-12T01:39:03.063Z,9.1
2019-05-12T01:40:03.001Z,9.2
2019-05-12T01:41:02.876Z,9.2
2019-05-12T01:42:03.012Z,9.2
2019-05-12T01:43:03.761Z,9.2
2019-05-12T01:44:02.916Z,9.2
2019-05-12T01:45:03.830Z,9.2
2019-05-12T01:46:03.022Z,9.3
2019-05-12T01:47:02.991Z,9.2
2019-05-12T01:48:02.793Z,9.2
2019-05-12T01:49:02.805Z,9.1
2019-05-12T01:50:03.708Z,9.1
2019-05-12T01:51:03.699Z,9.1
2019-05-12T01:52:03.645Z,9.1
2019-05-12T01:53:02.925Z,9.1
2019-05-12T01:54:15.361Z,9.1
2019-05-12T01:55:03.849Z,9.1
2019-05-12T01:56:03.509Z,9.1
2019-05-12T01:57:03.617Z,9.1
2019-05-12T01:58:03.397Z,9.1
2019-05-12T01:59:03.670Z,9.1
2019-05-12T02:00:03.567Z,9.1
2019-05-12T02:01:03.380Z,9
2019-05-12T02:02:03.455Z,8.9
2019-05-12T02:03:03.827Z,8.9
2019-05-12T02:04:03.308Z,8.9
2019-05-12T02:05:03.124Z,8.8
2019-05-12T02:06:03.291Z,8.8
2019-05-12T02:07:02.926Z,8.8
2019-05-12T02:08:02.989Z,8.8
2019-05-12T02:09:02.939Z,8.8
2019-05-12T02:10:03.321Z,8.8
2019-05-12T02:11:03.084Z,8.8
2019-05-12T02:12:03.074Z,8.7
2019-05-12T02:13:02.911Z,8.7
2019-05-12T02:14:02.896Z,8.6
2019-05-12T02:15:02.819Z,8.7
2019-05-12T02:16:03.692Z,8.7
2019-05-12T02:17:03.853Z,8.7
2019-05-12T02:18:03.623Z,8.7
2019-05-12T02:19:02.755Z,8.6
2019-05-12T02:20:02.866Z,8.7
2019-05-12T02:21:03.780Z,8.6
2019-05-12T02:22:03.741Z,8.7
2019-05-12T02:23:03.593Z,8.6
2019-05-12T02:24:03.587Z,8.6
2019-05-12T02:25:03.737Z,8.6
2019-05-12T02:26:03.466Z,8.6
2019-05-12T02:27:03.597Z,8.6
2019-05-12T02:28:03.393Z,8.6
2019-05-12T02:29:03.367Z,8.6
2019-05-12T02:30:03.376Z,8.6
2019-05-12T02:31:03.475Z,8.4
2019-05-12T02:32:03.423Z,8.4
2019-05-12T02:33:05.541Z,8.4
2019-05-12T02:34:06.027Z,8.3
2019-05-12T02:35:06.147Z,8.3
2019-05-12T02:36:04.995Z,8.3
2019-05-12T02:37:05.830Z,8.3
2019-05-12T02:38:05.588Z,8.3
2019-05-12T02:39:05.602Z,8.2
2019-05-12T02:40:05.100Z,8.2
2019-05-12T02:41:04.959Z,8.2
2019-05-12T02:42:05.376Z,8.2
2019-05-12T02:43:06.129Z,8.2
2019-05-12T02:44:05.843Z,8.1
2019-05-12T02:45:05.980Z,8.1
2019-05-12T02:46:05.120Z,8.1
2019-05-12T02:47:05.421Z,8.1
2019-05-12T02:48:05.931Z,8.1
2019-05-12T02:49:05.412Z,8.1
2019-05-12T02:50:05.748Z,8.1
2019-05-12T02:51:05.894Z,8
2019-05-12T02:52:05.350Z,8
2019-05-12T02:53:05.935Z,7.9
2019-05-12T02:54:06.034Z,8
2019-05-12T02:55:06.863Z,8
2019-05-12T02:56:05.469Z,7.9
2019-05-12T02:57:04.628Z,7.9
2019-05-12T02:58:06.490Z,7.9
2019-05-12T02:59:05.867Z,7.9
2019-05-12T03:00:05.543Z,7.9
2019-05-12T03:01:05.838Z,7.8
2019-05-12T03:02:05.642Z,7.9
2019-05-12T03:03:05.819Z,7.8
2019-05-12T03:04:06.274Z,7.8
2019-05-12T03:05:05.946Z,7.8
2019-05-12T03:06:05.796Z,7.8
2019-05-12T03:07:06.880Z,7.8
2019-05-12T03:08:05.413Z,7.8
2019-05-12T03:09:05.101Z,7.8
2019-05-12T03:10:05.417Z,7.7
2019-05-12T03:11:06.512Z,7.7
2019-05-12T03:12:06.419Z,7.7
2019-05-12T03:13:04.819Z,7.7
2019-05-12T03:14:04.273Z,7.7
2019-05-12T03:15:05.996Z,7.6
2019-05-12T03:16:05.324Z,7.6
2019-05-12T03:17:04.976Z,7.6
2019-05-12T03:18:07.216Z,7.6
2019-05-12T03:19:05.615Z,7.6
2019-05-12T03:20:05.299Z,7.6
2019-05-12T03:21:06.169Z,7.6
2019-05-12T03:22:05.486Z,7.6
2019-05-12T03:23:07.163Z,7.6
2019-05-12T03:24:07.088Z,7.5
2019-05-12T03:25:25.918Z,7.5
2019-05-12T03:26:05.579Z,7.5
2019-05-12T03:27:04.579Z,7.5
2019-05-12T03:28:09.554Z,7.4
2019-05-12T03:29:06.446Z,7.4
2019-05-12T03:30:18.204Z,7.4
2019-05-12T03:31:08.982Z,7.4
2019-05-12T03:32:09.193Z,7.4
2019-05-12T03:33:17.500Z,7.4
2019-05-12T03:34:13.295Z,7.4
2019-05-12T03:35:09.749Z,7.4
2019-05-12T03:36:10.671Z,7.4
2019-05-12T03:37:08.983Z,7.4
2019-05-12T03:38:04.648Z,7.4
2019-05-12T03:39:04.530Z,7.4
2019-05-12T03:40:05.778Z,7.4
2019-05-12T03:41:05.697Z,7.4
2019-05-12T03:42:05.443Z,7.4
2019-05-12T03:43:06.081Z,7.3
2019-05-12T03:44:05.474Z,7.3
2019-05-12T03:45:05.059Z,7.4
2019-05-12T03:46:05.660Z,7.3
2019-05-12T03:47:05.381Z,7.3
2019-05-12T03:48:04.566Z,7.3
2019-05-12T03:49:05.943Z,7.3
2019-05-12T03:50:05.072Z,7.3
2019-05-12T03:51:05.952Z,7.3
2019-05-12T03:52:05.505Z,7.3
2019-05-12T03:53:11.391Z,7.3
2019-05-12T03:54:05.567Z,7.3
2019-05-12T03:55:06.032Z,7.3
2019-05-12T03:56:04.740Z,7.3
2019-05-12T03:57:04.796Z,7.3
2019-05-12T03:58:04.893Z,7.3
2019-05-12T03:59:05.604Z,7.3
2019-05-12T04:00:05.595Z,7.3
2019-05-12T04:01:05.062Z,7.2
2019-05-12T04:02:05.058Z,7.2
2019-05-12T04:03:05.315Z,7.3
2019-05-12T04:04:05.869Z,7.2
2019-05-12T04:05:05.659Z,7.2
2019-05-12T04:06:05.083Z,7.2
2019-05-12T04:07:05.448Z,7.2
2019-05-12T04:08:06.842Z,7.2
2019-05-12T04:09:04.897Z,7.2
2019-05-12T04:10:05.597Z,7.2
2019-05-12T04:11:05.688Z,7.1
2019-05-12T04:12:05.551Z,7.1
2019-05-12T04:13:05.142Z,7.1
2019-05-12T04:14:06.243Z,7.1
2019-05-12T04:15:05.565Z,7.1
2019-05-12T04:16:05.277Z,7.1
2019-05-12T04:17:05.149Z,7.1
2019-05-12T04:18:06.635Z,7.1
2019-05-12T04:19:05.970Z,7.1
2019-05-12T04:20:05.200Z,7.1
2019-05-12T04:21:05.931Z,7.1
2019-05-12T04:22:05.795Z,7.1
2019-05-12T04:23:07.237Z,7.1
2019-05-12T04:24:06.410Z,7.1
2019-05-12T04:25:06.711Z,7
2019-05-12T04:26:17.111Z,7
2019-05-12T04:27:05.612Z,7
2019-05-12T04:28:05.434Z,7
2019-05-12T04:29:05.583Z,7
2019-05-12T04:30:05.894Z,7
2019-05-12T04:31:05.777Z,7
2019-05-12T04:32:05.497Z,6.9
2019-05-12T04:33:05.831Z,6.9
2019-05-12T04:34:05.766Z,6.9
2019-05-12T04:35:05.226Z,6.9
2019-05-12T04:36:05.990Z,6.9
2019-05-12T04:37:04.795Z,6.9
2019-05-12T04:38:05.338Z,6.9
2019-05-12T04:39:04.468Z,6.9
2019-05-12T04:40:05.903Z,6.9
2019-05-12T04:41:06.334Z,6.9
2019-05-12T04:42:05.667Z,6.9
2019-05-12T04:43:07.023Z,6.9
2019-05-12T04:44:06.569Z,6.9
2019-05-12T04:45:04.965Z,6.9
2019-05-12T04:46:05.445Z,6.9
2019-05-12T04:47:05.950Z,6.9
2019-05-12T04:48:06.496Z,6.9
2019-05-12T04:49:05.944Z,6.9
2019-05-12T04:50:05.997Z,6.9
2019-05-12T04:51:05.358Z,6.9
2019-05-12T04:52:05.658Z,6.8
2019-05-12T04:53:07.103Z,6.8
2019-05-12T04:54:06.647Z,6.8
2019-05-12T04:55:05.240Z,6.8
2019-05-12T04:56:20.511Z,6.8
2019-05-12T04:57:04.464Z,6.8
2019-05-12T04:58:04.871Z,6.8
2019-05-12T04:59:05.563Z,6.8
2019-05-12T05:00:05.563Z,6.8
2019-05-12T05:01:06.785Z,6.8
2019-05-12T05:02:05.873Z,6.8
2019-05-12T05:03:06.230Z,6.8
2019-05-12T05:04:06.226Z,6.8
2019-05-12T05:05:05.725Z,6.8
2019-05-12T05:06:04.756Z,6.8
2019-05-12T05:07:04.718Z,6.8
2019-05-12T05:08:05.219Z,6.8
2019-05-12T05:09:05.338Z,6.8
2019-05-12T05:10:04.948Z,6.8
2019-05-12T05:11:04.312Z,6.7
2019-05-12T05:12:04.922Z,6.7
2019-05-12T05:13:05.815Z,6.7
2019-05-12T05:14:04.629Z,6.7
2019-05-12T05:15:05.721Z,6.7
2019-05-12T05:16:05.710Z,6.7
2019-05-12T05:17:06.293Z,6.7
2019-05-12T05:18:07.169Z,6.7
2019-05-12T05:19:03.918Z,6.7
2019-05-12T05:20:04.314Z,6.6
2019-05-12T05:21:04.892Z,6.6
2019-05-12T05:22:04.494Z,6.6
2019-05-12T05:23:04.434Z,6.6
2019-05-12T05:24:04.189Z,6.6
2019-05-12T05:25:04.476Z,6.6
2019-05-12T05:26:28.065Z,6.6
2019-05-12T05:27:04.607Z,6.7
2019-05-12T05:28:04.450Z,6.6
2019-05-12T05:29:04.641Z,6.6
2019-05-12T05:30:04.320Z,6.6
2019-05-12T05:31:03.775Z,6.6
2019-05-12T05:32:03.698Z,6.6
2019-05-12T05:33:05.183Z,6.6
2019-05-12T05:34:05.170Z,6.6
2019-05-12T05:35:07.868Z,6.6
2019-05-12T05:36:03.680Z,6.6
2019-05-12T05:37:05.357Z,6.6
2019-05-12T05:38:04.815Z,6.6
2019-05-12T05:39:04.495Z,6.5
2019-05-12T05:40:04.208Z,6.6
2019-05-12T05:41:10.725Z,6.5
2019-05-12T05:42:04.745Z,6.6
2019-05-12T05:43:18.849Z,6.5
2019-05-12T05:44:03.637Z,6.5
2019-05-12T05:45:10.540Z,6.6
2019-05-12T05:46:08.417Z,6.6
2019-05-12T05:47:04.546Z,6.6
2019-05-12T05:48:10.382Z,6.5
2019-05-12T05:49:04.388Z,6.5
2019-05-12T05:50:04.952Z,6.5
2019-05-12T05:51:09.273Z,6.5
2019-05-12T05:52:03.766Z,6.5
2019-05-12T05:53:04.558Z,6.5
2019-05-12T05:54:04.242Z,6.5
2019-05-12T05:55:19.824Z,6.5
2019-05-12T05:56:04.262Z,6.5
2019-05-12T05:57:06.437Z,6.5
2019-05-12T05:58:10.699Z,6.5
2019-05-12T05:59:04.903Z,6.4
2019-05-12T06:00:22.533Z,6.4
2019-05-12T06:01:08.487Z,6.4
2019-05-12T06:02:05.225Z,6.5
2019-05-12T06:03:06.257Z,6.5
2019-05-12T06:04:08.959Z,6.5
2019-05-12T06:05:04.645Z,6.4
2019-05-12T06:06:15.132Z,6.4
2019-05-12T06:07:04.282Z,6.4
2019-05-12T06:08:04.508Z,6.4
2019-05-12T06:09:03.860Z,6.4
2019-05-12T06:10:04.310Z,6.4
2019-05-12T06:11:08.780Z,6.4
2019-05-12T06:12:10.189Z,6.4
2019-05-12T06:13:04.368Z,6.4
2019-05-12T06:14:16.082Z,6.4
2019-05-12T06:15:04.378Z,6.4
2019-05-12T06:16:04.663Z,6.4
2019-05-12T06:17:04.539Z,6.4
2019-05-12T06:18:04.075Z,6.4
2019-05-12T06:19:03.728Z,6.4
2019-05-12T06:20:04.649Z,6.4
2019-05-12T06:21:03.711Z,6.4
2019-05-12T06:22:09.196Z,6.4
2019-05-12T06:23:04.781Z,6.4
2019-05-12T06:24:03.854Z,6.4
2019-05-12T06:25:05.319Z,6.4
2019-05-12T06:26:05.000Z,6.4
2019-05-12T06:27:21.129Z,6.4
2019-05-12T06:28:09.196Z,6.4
2019-05-12T06:29:04.684Z,6.4
2019-05-12T06:30:06.650Z,6.4
2019-05-12T06:31:04.421Z,6.3
2019-05-12T06:32:11.086Z,6.3
2019-05-12T06:33:04.421Z,6.3
2019-05-12T06:34:20.934Z,6.4
2019-05-12T06:35:04.873Z,6.3
2019-05-12T06:36:07.647Z,6.4
2019-05-12T06:37:17.053Z,6.3
2019-05-12T06:38:05.512Z,6.4
2019-05-12T06:39:04.602Z,6.3
2019-05-12T06:40:03.806Z,6.4
2019-05-12T06:41:03.793Z,6.3
2019-05-12T06:42:17.228Z,6.4
2019-05-12T06:43:04.880Z,6.3
2019-05-12T06:44:03.951Z,6.4
2019-05-12T06:45:04.018Z,6.4
2019-05-12T06:46:03.849Z,6.4
2019-05-12T06:47:08.597Z,6.4
2019-05-12T06:48:03.645Z,6.4
2019-05-12T06:49:17.762Z,6.4
2019-05-12T06:50:04.214Z,6.4
2019-05-12T06:51:04.278Z,6.3
2019-05-12T06:52:07.419Z,6.3
2019-05-12T06:53:05.581Z,6.4
2019-05-12T06:54:14.837Z,6.4
2019-05-12T06:55:04.294Z,6.4
2019-05-12T06:56:09.258Z,6.4
2019-05-12T06:57:28.697Z,6.4
2019-05-12T06:58:05.228Z,6.3
2019-05-12T06:59:14.480Z,6.3
2019-05-12T07:00:04.832Z,6.3
2019-05-12T07:01:19.585Z,6.3
2019-05-12T07:02:03.598Z,6.3
2019-05-12T07:03:04.406Z,6.3
2019-05-12T07:04:10.327Z,6.4
2019-05-12T07:05:04.700Z,6.4
2019-05-12T07:06:13.784Z,6.3
2019-05-12T07:07:03.804Z,6.4
2019-05-12T07:08:04.526Z,6.3
2019-05-12T07:09:22.768Z,6.4
2019-05-12T07:10:42.352Z,6.4
2019-05-12T07:12:07.526Z,6.4
2019-05-12T07:13:06.281Z,6.5
2019-05-12T07:14:22.761Z,6.4
2019-05-12T07:15:04.208Z,6.5
2019-05-12T07:16:03.919Z,6.5
2019-05-12T07:17:06.528Z,6.5
2019-05-12T07:18:04.489Z,6.4
2019-05-12T07:19:22.574Z,6.4
2019-05-12T07:20:04.144Z,6.5
2019-05-12T07:21:04.249Z,6.5
2019-05-12T07:22:22.665Z,6.5
2019-05-12T07:23:04.269Z,6.5
2019-05-12T07:24:11.334Z,6.6
2019-05-12T07:25:08.555Z,6.6
2019-05-12T07:26:19.111Z,6.5
2019-05-12T07:27:09.593Z,6.5
2019-05-12T07:28:08.491Z,6.5
2019-05-12T07:29:04.639Z,6.5
2019-05-12T07:30:04.916Z,6.6
2019-05-12T07:31:04.080Z,6.6
2019-05-12T07:32:21.644Z,6.6
2019-05-12T07:33:05.037Z,6.6
2019-05-12T07:34:08.023Z,6.6
2019-05-12T07:35:04.111Z,6.6
2019-05-12T07:36:06.686Z,6.6
2019-05-12T07:37:04.555Z,6.6
2019-05-12T07:38:05.245Z,6.6
2019-05-12T07:39:08.335Z,6.7
2019-05-12T07:40:05.054Z,6.7
2019-05-12T07:41:11.020Z,6.6
2019-05-12T07:42:03.780Z,6.7
2019-05-12T07:43:04.476Z,6.6
2019-05-12T07:44:03.874Z,6.6
2019-05-12T07:45:04.240Z,6.8
2019-05-12T07:46:07.482Z,6.9
2019-05-12T07:47:03.870Z,6.9
2019-05-12T07:48:10.607Z,6.8
2019-05-12T07:49:04.180Z,6.8
2019-05-12T07:50:09.672Z,6.8
2019-05-12T07:51:04.381Z,6.9
2019-05-12T07:52:03.888Z,6.9
2019-05-12T07:53:04.755Z,7
2019-05-12T07:54:04.278Z,7
2019-05-12T07:55:04.513Z,7
2019-05-12T07:56:04.368Z,7
2019-05-12T07:57:17.681Z,6.9
2019-05-12T07:58:18.655Z,7
2019-05-12T07:59:04.698Z,7
2019-05-12T08:00:03.892Z,6.9
2019-05-12T08:01:08.195Z,6.9
2019-05-12T08:02:04.141Z,6.9
2019-05-12T08:03:21.322Z,7
2019-05-12T08:04:04.752Z,7
2019-05-12T08:05:04.093Z,6.9
2019-05-12T08:06:04.858Z,7
2019-05-12T08:07:04.094Z,7
2019-05-12T08:08:11.217Z,7
2019-05-12T08:09:04.292Z,7.1
2019-05-12T08:10:19.815Z,7.1
2019-05-12T08:11:04.712Z,7.1
2019-05-12T08:12:04.226Z,7.1
2019-05-12T08:13:04.914Z,7.1
2019-05-12T08:14:03.800Z,7
2019-05-12T08:15:09.929Z,7
2019-05-12T08:16:03.883Z,7.1
2019-05-12T08:17:19.511Z,7.1
2019-05-12T08:18:08.298Z,7.1
2019-05-12T08:19:04.330Z,7.1
2019-05-12T08:20:04.715Z,7.1
2019-05-12T08:21:03.975Z,7.1
2019-05-12T08:22:04.535Z,7.1
2019-05-12T08:23:10.780Z,7
2019-05-12T08:24:03.983Z,7.1
2019-05-12T08:25:04.436Z,7.1
2019-05-12T08:26:18.779Z,7.1
2019-05-12T08:27:06.795Z,7.1
2019-05-12T08:28:19.205Z,7.1
2019-05-12T08:29:04.629Z,7
2019-05-12T08:30:06.453Z,7.1
2019-05-12T08:31:03.812Z,7.1
2019-05-12T08:32:04.019Z,7.1
2019-05-12T08:33:10.380Z,7.1
2019-05-12T08:34:04.505Z,7.1
2019-05-12T08:35:05.264Z,7.2
2019-05-12T08:36:16.377Z,7.2
2019-05-12T08:37:04.559Z,7.3
2019-05-12T08:38:04.204Z,7.3
2019-05-12T08:39:17.061Z,7.3
2019-05-12T08:40:07.945Z,7.3
2019-05-12T08:41:04.476Z,7.3
2019-05-12T08:42:04.276Z,7.2
2019-05-12T08:43:10.949Z,7.3
2019-05-12T08:44:04.899Z,7.3
2019-05-12T08:45:08.392Z,7.3
2019-05-12T08:46:15.424Z,7.3
2019-05-12T08:47:04.176Z,7.4
2019-05-12T08:48:04.082Z,7.4
2019-05-12T08:49:05.688Z,7.3
2019-05-12T08:50:05.114Z,7.3
2019-05-12T08:51:19.417Z,7.3
2019-05-12T08:52:04.267Z,7.3
2019-05-12T08:53:05.093Z,7.3
2019-05-12T08:54:08.560Z,7.3
2019-05-12T08:55:04.554Z,7.3
2019-05-12T08:56:19.800Z,7.3
2019-05-12T08:57:04.048Z,7.3
2019-05-12T08:58:04.075Z,7.2
2019-05-12T08:59:09.796Z,7.3
2019-05-12T09:00:09.001Z,7.2
2019-05-12T09:01:04.646Z,7.3
2019-05-12T09:02:11.024Z,7.3
2019-05-12T09:03:03.733Z,7.3
2019-05-12T09:04:17.438Z,7.3
2019-05-12T09:05:04.929Z,7.3
2019-05-12T09:06:09.081Z,7.3
2019-05-12T09:07:04.545Z,7.4
2019-05-12T09:08:03.968Z,7.4
2019-05-12T09:09:03.841Z,7.4
2019-05-12T09:10:04.377Z,7.4
2019-05-12T09:11:03.826Z,7.4
2019-05-12T09:12:03.782Z,7.4
2019-05-12T09:13:04.449Z,7.4
2019-05-12T09:14:06.116Z,7.4
2019-05-12T09:15:08.589Z,7.3
2019-05-12T09:16:04.488Z,7.3
2019-05-12T09:17:07.591Z,7.4
2019-05-12T09:18:05.242Z,7.4
2019-05-12T09:19:10.314Z,7.4
2019-05-12T09:20:08.810Z,7.4
2019-05-12T09:21:03.980Z,7.4
2019-05-12T09:22:20.804Z,7.4
2019-05-12T09:23:05.227Z,7.4
2019-05-12T09:24:04.513Z,7.4
2019-05-12T09:25:08.754Z,7.4
2019-05-12T09:26:04.290Z,7.4
2019-05-12T09:27:09.134Z,7.4
2019-05-12T09:28:04.074Z,7.4
2019-05-12T09:29:03.888Z,7.5
2019-05-12T09:30:09.974Z,7.4
2019-05-12T09:31:03.862Z,7.4
2019-05-12T09:32:09.794Z,7.4
2019-05-12T09:33:04.455Z,7.4
2019-05-12T09:34:16.469Z,7.4
2019-05-12T09:35:04.305Z,7.4
2019-05-12T09:36:04.520Z,7.4
2019-05-12T09:37:04.303Z,7.5
2019-05-12T09:38:11.552Z,7.4
2019-05-12T09:39:06.111Z,7.4
2019-05-12T09:40:04.819Z,7.4
2019-05-12T09:41:05.620Z,7.4
2019-05-12T09:42:04.054Z,7.5
2019-05-12T09:43:10.959Z,7.6
2019-05-12T09:44:04.750Z,7.5
2019-05-12T09:45:10.722Z,7.5
2019-05-12T09:46:04.411Z,7.5
2019-05-12T09:47:19.231Z,7.6
2019-05-12T09:48:09.480Z,7.5
2019-05-12T09:49:04.352Z,7.5
2019-05-12T09:50:04.521Z,7.6
2019-05-12T09:51:08.112Z,7.6
2019-05-12T09:52:03.857Z,7.6
2019-05-12T09:53:11.690Z,7.6
2019-05-12T09:54:05.455Z,7.6
2019-05-12T09:55:04.450Z,7.6
2019-05-12T09:56:04.718Z,7.6
2019-05-12T09:57:04.541Z,7.7
2019-05-12T09:58:04.320Z,7.6
2019-05-12T09:59:25.297Z,7.7
2019-05-12T10:00:04.685Z,7.7
2019-05-12T10:01:04.004Z,7.6
2019-05-12T10:02:03.910Z,7.6
2019-05-12T10:03:08.894Z,7.7
2019-05-12T10:04:03.984Z,7.7
2019-05-12T10:05:04.191Z,7.7
2019-05-12T10:06:04.023Z,7.7
2019-05-12T10:07:04.038Z,7.7
2019-05-12T10:08:04.970Z,7.8
2019-05-12T10:09:03.747Z,7.8
2019-05-12T10:10:03.970Z,7.7
2019-05-12T10:11:04.030Z,7.7
2019-05-12T10:12:05.836Z,7.7
2019-05-12T10:13:05.163Z,7.8
2019-05-12T10:14:11.158Z,7.8
2019-05-12T10:15:04.544Z,7.8
2019-05-12T10:16:09.058Z,7.8
2019-05-12T10:17:03.850Z,7.8
2019-05-12T10:18:13.769Z,7.8
2019-05-12T10:19:04.221Z,7.8
2019-05-12T10:20:03.581Z,7.8
2019-05-12T10:21:03.219Z,7.8
2019-05-12T10:22:03.020Z,7.8
2019-05-12T10:23:04.763Z,7.8
2019-05-12T10:24:05.311Z,7.8
2019-05-12T10:25:04.230Z,7.8
2019-05-12T10:26:14.388Z,7.8
2019-05-12T10:27:04.085Z,7.8
2019-05-12T10:28:16.152Z,7.8
2019-05-12T10:29:21.036Z,7.8
2019-05-12T10:30:17.469Z,7.8
2019-05-12T10:31:04.392Z,7.8
2019-05-12T10:32:04.250Z,7.8
2019-05-12T10:33:04.215Z,7.8
2019-05-12T10:34:03.948Z,7.8
2019-05-12T10:35:03.989Z,7.8
2019-05-12T10:36:08.703Z,7.8
2019-05-12T10:37:04.340Z,7.8
2019-05-12T10:38:11.019Z,7.8
2019-05-12T10:39:04.538Z,7.8
2019-05-12T10:40:04.042Z,7.8
2019-05-12T10:41:04.540Z,7.8
2019-05-12T10:42:03.500Z,7.8
2019-05-12T10:43:05.033Z,7.8
2019-05-12T10:44:04.225Z,7.9
2019-05-12T10:45:04.480Z,7.9
2019-05-12T10:46:04.430Z,8
2019-05-12T10:47:04.746Z,8.1
2019-05-12T10:48:03.924Z,8
2019-05-12T10:49:04.096Z,8
2019-05-12T10:50:04.388Z,7.9
2019-05-12T10:51:03.572Z,8
2019-05-12T10:52:04.168Z,8.1
2019-05-12T10:53:10.040Z,8.1
2019-05-12T10:54:15.770Z,8
2019-05-12T10:55:04.638Z,8.1
2019-05-12T10:56:04.089Z,8
2019-05-12T10:57:05.279Z,8.1
2019-05-12T10:58:07.474Z,8.1
2019-05-12T10:59:04.461Z,8.1
2019-05-12T11:00:04.585Z,8.1
2019-05-12T11:01:08.769Z,8.1
2019-05-12T11:02:03.757Z,8.1
2019-05-12T11:03:15.166Z,8.1
2019-05-12T11:04:04.127Z,8.1
2019-05-12T11:05:03.939Z,8.2
2019-05-12T11:06:08.016Z,8.2
2019-05-12T11:07:04.871Z,8.2
2019-05-12T11:08:13.710Z,8.2
2019-05-12T11:09:03.917Z,8.2
2019-05-12T11:10:20.412Z,8.2
2019-05-12T11:11:04.400Z,8.1
2019-05-12T11:12:03.672Z,8.2
2019-05-12T11:13:10.119Z,8.2
2019-05-12T11:14:04.105Z,8.2
2019-05-12T11:15:08.649Z,8.2
2019-05-12T11:16:04.018Z,8.2
2019-05-12T11:17:09.685Z,8.3
2019-05-12T11:18:03.229Z,8.3
2019-05-12T11:19:10.808Z,8.3
2019-05-12T11:20:04.331Z,8.3
2019-05-12T11:21:03.826Z,8.3
2019-05-12T11:22:03.926Z,8.4
2019-05-12T11:23:04.219Z,8.3
2019-05-12T11:24:04.023Z,8.4
2019-05-12T11:25:04.571Z,8.4
2019-05-12T11:26:04.188Z,8.4
2019-05-12T11:27:04.310Z,8.4
2019-05-12T11:28:04.116Z,8.4
2019-05-12T11:29:03.958Z,8.4
2019-05-12T11:30:04.509Z,8.4
2019-05-12T11:31:03.827Z,8.4
2019-05-12T11:32:03.909Z,8.4
2019-05-12T11:33:04.819Z,8.4
2019-05-12T11:34:05.266Z,8.4
2019-05-12T11:35:04.307Z,8.4
2019-05-12T11:36:04.562Z,8.4
2019-05-12T11:37:03.711Z,8.4
2019-05-12T11:38:04.909Z,8.4
2019-05-12T11:39:03.803Z,8.4
2019-05-12T11:40:04.514Z,8.4
2019-05-12T11:41:04.430Z,8.4
2019-05-12T11:42:04.482Z,8.4
2019-05-12T11:43:04.799Z,8.4
2019-05-12T11:44:04.133Z,8.4
2019-05-12T11:45:03.354Z,8.4
2019-05-12T11:46:03.243Z,8.4
2019-05-12T11:47:03.954Z,8.4
2019-05-12T11:48:10.568Z,8.4
2019-05-12T11:49:04.573Z,8.4
2019-05-12T11:50:10.270Z,8.5
2019-05-12T11:51:04.211Z,8.5
2019-05-12T11:52:19.057Z,8.5
2019-05-12T11:53:04.582Z,8.5
2019-05-12T11:54:13.156Z,8.6
2019-05-12T11:55:04.085Z,8.6
2019-05-12T11:56:09.462Z,8.6
2019-05-12T11:57:03.788Z,8.6
2019-05-12T11:58:11.798Z,8.6
2019-05-12T11:59:03.768Z,8.7
2019-05-12T12:00:05.631Z,8.7
2019-05-12T12:01:08.517Z,8.7
2019-05-12T12:02:03.493Z,8.7
2019-05-12T12:03:18.038Z,8.7
2019-05-12T12:04:03.886Z,8.8
2019-05-12T12:05:03.756Z,8.7
2019-05-12T12:06:03.262Z,8.8
2019-05-12T12:07:03.740Z,8.8
2019-05-12T12:08:04.255Z,8.8
2019-05-12T12:09:04.088Z,8.8
2019-05-12T12:10:03.878Z,8.8
2019-05-12T12:11:04.116Z,8.8
2019-05-12T12:12:07.151Z,8.8
2019-05-12T12:13:04.331Z,8.8
2019-05-12T12:14:10.751Z,8.9
2019-05-12T12:15:04.860Z,8.9
2019-05-12T12:16:11.576Z,8.9
2019-05-12T12:17:04.158Z,8.9
2019-05-12T12:18:15.561Z,8.9
2019-05-12T12:19:06.191Z,9
2019-05-12T12:20:03.974Z,9.1
2019-05-12T12:21:08.004Z,9.1
2019-05-12T12:22:04.601Z,9.1
2019-05-12T12:23:12.108Z,9.1
2019-05-12T12:24:04.116Z,9.1
2019-05-12T12:25:15.655Z,9.1
2019-05-12T12:26:04.184Z,9.1
2019-05-12T12:27:04.090Z,9.1
2019-05-12T12:28:04.776Z,9.1
2019-05-12T12:29:03.704Z,9.1
2019-05-12T12:30:20.179Z,9.1
2019-05-12T12:31:08.010Z,9.1
2019-05-12T12:32:03.433Z,9.1
2019-05-12T12:33:04.573Z,9.1
2019-05-12T12:34:03.621Z,9.1
2019-05-12T12:35:14.776Z,9.1
2019-05-12T12:36:04.346Z,9.1
2019-05-12T12:37:04.035Z,9.1
2019-05-12T12:38:04.226Z,9.1
2019-05-12T12:39:04.321Z,9.2
2019-05-12T12:40:04.558Z,9.2
2019-05-12T12:41:04.370Z,9.2
2019-05-12T12:42:04.631Z,9.1
2019-05-12T12:43:04.243Z,9.1
2019-05-12T12:44:04.740Z,9.1
2019-05-12T12:45:04.509Z,9.2
2019-05-12T12:46:03.749Z,9.2
2019-05-12T12:47:04.177Z,9.2
2019-05-12T12:48:03.981Z,9.3
2019-05-12T12:49:10.604Z,9.3
2019-05-12T12:50:04.218Z,9.3
2019-05-12T12:51:04.245Z,9.3
2019-05-12T12:52:03.730Z,9.3
2019-05-12T12:53:03.867Z,9.3
2019-05-12T12:54:03.822Z,9.3
2019-05-12T12:55:08.622Z,9.2
2019-05-12T12:56:04.632Z,9.3
2019-05-12T12:57:10.179Z,9.3
2019-05-12T12:58:03.733Z,9.3
2019-05-12T12:59:14.489Z,9.3
2019-05-12T13:00:04.034Z,9.3
2019-05-12T13:01:03.949Z,9.2
2019-05-12T13:02:09.515Z,9.3
2019-05-12T13:03:03.922Z,9.2
2019-05-12T13:04:06.699Z,9.3
2019-05-12T13:05:03.677Z,9.3
2019-05-12T13:06:05.006Z,9.2
2019-05-12T13:07:04.893Z,9.3
2019-05-12T13:08:04.500Z,9.2
2019-05-12T13:09:24.609Z,9.2
2019-05-12T13:10:09.963Z,9.2
2019-05-12T13:11:04.645Z,9.3
2019-05-12T13:12:19.388Z,9.2
2019-05-12T13:13:04.641Z,9.2
2019-05-12T13:14:04.252Z,9.3
2019-05-12T13:15:04.035Z,9.3
2019-05-12T13:16:04.363Z,9.3
2019-05-12T13:17:04.360Z,9.4
2019-05-12T13:18:03.273Z,9.4
2019-05-12T13:19:17.312Z,9.3
2019-05-12T13:20:03.161Z,9.3
2019-05-12T13:21:03.951Z,9.3
2019-05-12T13:22:03.915Z,9.3
2019-05-12T13:23:04.348Z,9.3
2019-05-12T13:24:03.791Z,9.3
2019-05-12T13:25:08.955Z,9.3
2019-05-12T13:26:04.565Z,9.3
2019-05-12T13:27:04.041Z,9.4
2019-05-12T13:28:18.943Z,9.4
2019-05-12T13:29:04.213Z,9.4
2019-05-12T13:30:05.733Z,9.4
2019-05-12T13:31:16.052Z,9.4
2019-05-12T13:32:04.157Z,9.4
2019-05-12T13:33:17.928Z,9.5
2019-05-12T13:34:03.895Z,9.5
2019-05-12T13:35:04.465Z,9.5
2019-05-12T13:36:04.605Z,9.5
2019-05-12T13:37:03.614Z,9.4
2019-05-12T13:38:03.705Z,9.4
2019-05-12T13:39:03.613Z,9.3
2019-05-12T13:40:03.751Z,9.3
2019-05-12T13:41:09.271Z,9.4
2019-05-12T13:42:03.575Z,9.3
2019-05-12T13:43:09.394Z,9.3
2019-05-12T13:44:04.344Z,9.3
2019-05-12T13:45:04.379Z,9.3
2019-05-12T13:46:03.502Z,9.3
2019-05-12T13:47:03.631Z,9.3
2019-05-12T13:48:04.216Z,9.3
2019-05-12T13:49:04.269Z,9.4
2019-05-12T13:50:04.279Z,9.4
2019-05-12T13:51:15.857Z,9.4
2019-05-12T13:52:04.415Z,9.4
2019-05-12T13:53:10.525Z,9.5